createdAt,value
2017-04-15T00:00:52.425Z,23.05
2017-04-15T00:01:51.713Z,24.38
2017-04-15T00:02:51.069Z,24.35
2017-04-15T00:03:50.432Z,23.42
2017-04-15T00:04:49.743Z,22.45
2017-04-15T00:05:49.058Z,22.38
2017-04-15T00:06:48.336Z,24.02
2017-04-15T00:07:47.892Z,23.82
2017-04-15T00:08:47.167Z,24.52
2017-04-15T00:09:46.539Z,23.25
2017-04-15T00:17:42.962Z,23.23
2017-04-15T00:18:42.292Z,22.42
2017-04-15T00:19:42.280Z,22.83
2017-04-15T00:20:41.573Z,23.27
2017-04-15T00:21:40.816Z,23.28
2017-04-15T00:22:40.603Z,24.63
2017-04-15T00:23:39.987Z,21.88
2017-04-15T00:24:40.041Z,21.03
2017-04-15T00:25:39.351Z,23.73
2017-04-15T00:26:38.679Z,21.90
2017-04-15T00:27:37.969Z,23.88
2017-04-15T00:28:37.285Z,21.62
2017-04-15T00:29:36.545Z,22.73
2017-04-15T00:30:35.832Z,22.65
2017-04-15T00:31:35.100Z,22.13
2017-04-15T00:32:34.448Z,20.97
2017-04-15T00:33:33.787Z,22.72
2017-04-15T00:34:33.084Z,22.22
2017-04-15T00:35:32.318Z,23.53
2017-04-15T00:36:31.584Z,21.43
2017-04-15T00:37:30.954Z,20.47
2017-04-15T00:38:31.032Z,21.02
2017-04-15T00:39:30.376Z,20.35
2017-04-15T00:40:29.680Z,20.70
2017-04-15T00:41:28.969Z,19.57
2017-04-15T00:42:28.234Z,21.48
2017-04-15T00:43:27.547Z,21.32
2017-04-15T00:44:26.852Z,22.95
2017-04-15T00:45:26.145Z,21.30
2017-04-15T00:46:25.443Z,20.88
2017-04-15T00:47:24.728Z,21.13
2017-04-15T00:48:24.043Z,22.12
2017-04-15T00:49:23.308Z,19.73
2017-04-15T00:50:22.612Z,21.75
2017-04-15T00:51:21.896Z,21.53
2017-04-15T00:52:21.254Z,20.63
2017-04-15T00:53:20.562Z,20.45
2017-04-15T00:54:19.850Z,21.45
2017-04-15T00:55:19.125Z,20.40
2017-04-15T00:56:18.401Z,21.55
2017-04-15T00:57:17.684Z,22.02
2017-04-15T00:58:16.997Z,20.38
2017-04-15T00:59:16.365Z,20.85
2017-04-15T01:00:15.704Z,21.00
2017-04-15T01:01:14.967Z,22.00
2017-04-15T01:02:14.359Z,20.05
2017-04-15T01:03:13.657Z,20.88
2017-04-15T01:04:12.995Z,20.97
2017-04-15T01:05:12.255Z,20.18
2017-04-15T01:06:11.520Z,20.13
2017-04-15T01:07:10.855Z,21.52
2017-04-15T01:08:10.150Z,21.30
2017-04-15T01:09:09.504Z,20.45
2017-04-15T01:10:08.798Z,20.53
2017-04-15T01:11:08.830Z,20.52
2017-04-15T01:12:08.131Z,20.75
2017-04-15T01:13:07.463Z,19.88
2017-04-15T01:14:06.775Z,19.85
2017-04-15T01:15:06.075Z,20.98
2017-04-15T01:16:05.410Z,20.63
2017-04-15T01:17:04.722Z,20.37
2017-04-15T01:18:04.047Z,21.43
2017-04-15T01:19:03.356Z,20.73
2017-04-15T01:20:02.661Z,21.48
2017-04-15T01:21:02.710Z,22.52
2017-04-15T01:22:02.063Z,24.00
2017-04-15T01:23:02.131Z,22.32
2017-04-15T01:24:01.476Z,23.68
2017-04-15T01:25:00.790Z,23.22
2017-04-15T01:26:00.044Z,23.08
2017-04-15T01:26:59.365Z,22.87
2017-04-15T01:27:58.767Z,24.02
2017-04-15T01:28:58.384Z,23.23
2017-04-15T01:29:57.685Z,23.97
2017-04-15T01:30:56.977Z,23.10
2017-04-15T01:31:56.308Z,21.47
2017-04-15T01:32:55.586Z,24.02
2017-04-15T01:33:55.564Z,23.85
2017-04-15T01:34:54.862Z,24.93
2017-04-15T01:35:54.174Z,26.22
2017-04-15T01:36:53.449Z,24.38
2017-04-15T01:37:52.774Z,24.15
2017-04-15T01:38:52.058Z,25.08
2017-04-15T01:39:51.396Z,25.78
2017-04-15T01:40:50.717Z,24.20
2017-04-15T01:41:50.018Z,26.82
2017-04-15T01:42:49.398Z,24.95
2017-04-15T01:43:48.658Z,24.57
2017-04-15T01:44:48.022Z,25.58
2017-04-15T01:45:47.303Z,27.55
2017-04-15T01:46:46.590Z,24.95
2017-04-15T01:47:45.863Z,24.97
2017-04-15T01:48:45.111Z,24.30
2017-04-15T01:49:44.415Z,25.30
2017-04-15T01:50:43.692Z,24.93
2017-04-15T01:51:43.241Z,24.13
2017-04-15T01:52:42.594Z,26.10
2017-04-15T01:53:41.896Z,25.12
2017-04-15T01:54:41.191Z,26.10
2017-04-15T01:55:41.183Z,27.58
2017-04-15T01:56:40.484Z,27.08
2017-04-15T01:57:39.788Z,27.18
2017-04-15T01:58:39.792Z,25.00
2017-04-15T01:59:39.112Z,25.63
2017-04-15T02:00:38.444Z,25.53
2017-04-15T02:01:37.736Z,26.40
2017-04-15T02:02:37.035Z,25.90
2017-04-15T02:03:36.349Z,25.97
2017-04-15T02:04:36.395Z,24.88
2017-04-15T02:05:35.685Z,27.08
2017-04-15T02:06:35.033Z,25.25
2017-04-15T02:07:35.044Z,26.08
2017-04-15T02:08:34.426Z,26.20
2017-04-15T02:09:34.911Z,26.73
2017-04-15T02:10:34.215Z,26.13
2017-04-15T02:11:33.488Z,25.92
2017-04-15T02:12:32.824Z,26.33
2017-04-15T02:13:32.116Z,25.82
2017-04-15T02:14:31.479Z,28.28
2017-04-15T02:15:30.876Z,27.62
2017-04-15T02:16:30.202Z,26.47
2017-04-15T02:17:29.511Z,27.25
2017-04-15T02:18:28.807Z,25.40
2017-04-15T02:19:28.111Z,26.18
2017-04-15T02:20:27.459Z,27.03
2017-04-15T02:21:26.753Z,29.80
2017-04-15T02:22:26.045Z,27.57
2017-04-15T02:23:25.452Z,28.28
2017-04-15T02:24:24.749Z,29.00
2017-04-15T02:25:24.107Z,28.72
2017-04-15T02:26:23.458Z,28.77
2017-04-15T02:27:22.756Z,30.03
2017-04-15T02:28:22.088Z,29.25
2017-04-15T02:29:21.366Z,30.88
2017-04-15T02:30:20.674Z,29.35
2017-04-15T02:31:19.935Z,28.25
2017-04-15T02:32:19.223Z,29.03
2017-04-15T02:33:18.496Z,29.35
2017-04-15T02:34:17.797Z,30.08
2017-04-15T02:35:17.125Z,29.13
2017-04-15T02:36:16.495Z,31.70
2017-04-15T02:37:15.813Z,31.03
2017-04-15T02:38:15.092Z,30.92
2017-04-15T02:39:14.411Z,29.95
2017-04-15T02:40:13.738Z,31.88
2017-04-15T02:41:13.040Z,32.50
2017-04-15T02:42:12.433Z,30.30
2017-04-15T02:43:12.426Z,32.27
2017-04-15T02:44:11.688Z,34.25
2017-04-15T02:45:10.966Z,32.95
2017-04-15T02:46:10.236Z,33.12
2017-04-15T02:47:09.538Z,33.72
2017-04-15T02:48:08.856Z,35.15
2017-04-15T02:49:08.181Z,34.35
2017-04-15T02:50:07.473Z,33.80
2017-04-15T02:51:06.790Z,35.03
2017-04-15T02:52:06.099Z,35.82
2017-04-15T02:53:05.391Z,35.60
2017-04-15T02:54:04.654Z,35.13
2017-04-15T02:55:03.922Z,37.55
2017-04-15T02:56:03.244Z,37.03
2017-04-15T02:57:02.525Z,35.52
2017-04-15T02:58:01.815Z,36.40
2017-04-15T02:59:01.143Z,40.33
2017-04-15T03:00:00.404Z,38.30
2017-04-15T03:00:59.777Z,37.75
2017-04-15T03:01:59.090Z,37.62
2017-04-15T03:02:58.426Z,39.22
2017-04-15T03:03:57.703Z,37.45
2017-04-15T03:04:57.033Z,39.83
2017-04-15T03:05:56.335Z,38.12
2017-04-15T03:06:55.623Z,38.50
2017-04-15T03:07:54.887Z,39.85
2017-04-15T03:08:54.909Z,40.88
2017-04-15T03:09:54.266Z,39.83
2017-04-15T03:10:53.548Z,40.25
2017-04-15T03:11:52.831Z,41.53
2017-04-15T03:12:52.155Z,40.70
2017-04-15T03:13:51.454Z,41.57
2017-04-15T03:14:50.765Z,43.35
2017-04-15T03:15:50.080Z,43.95
2017-04-15T03:16:49.344Z,43.68
2017-04-15T03:17:48.673Z,42.57
2017-04-15T03:18:47.995Z,42.82
2017-04-15T03:19:47.264Z,40.57
2017-04-15T03:20:46.586Z,43.33
2017-04-15T03:21:45.835Z,44.03
2017-04-15T03:22:45.127Z,43.63
2017-04-15T03:23:44.452Z,43.28
2017-04-15T03:24:44.457Z,44.18
2017-04-15T03:25:44.938Z,43.50
2017-04-15T03:26:44.245Z,41.87
2017-04-15T03:27:43.486Z,42.60
2017-04-15T03:28:42.822Z,42.85
2017-04-15T03:29:42.135Z,42.45
2017-04-15T03:30:42.171Z,42.10
2017-04-15T03:31:41.475Z,43.35
2017-04-15T03:32:40.722Z,43.05
2017-04-15T03:33:40.018Z,42.02
2017-04-15T03:34:39.335Z,43.18
2017-04-15T03:35:38.599Z,44.27
2017-04-15T03:36:37.930Z,41.92
2017-04-15T03:37:37.202Z,43.65
2017-04-15T03:38:36.482Z,41.85
2017-04-15T03:39:35.768Z,41.75
2017-04-15T03:40:35.050Z,42.72
2017-04-15T03:41:34.337Z,43.08
2017-04-15T03:42:33.600Z,43.62
2017-04-15T03:43:33.118Z,42.13
2017-04-15T03:44:32.489Z,41.33
2017-04-15T03:45:31.803Z,44.13
2017-04-15T03:46:31.132Z,44.88
2017-04-15T03:47:30.441Z,41.92
2017-04-15T03:48:29.756Z,43.80
2017-04-15T03:49:29.783Z,44.45
2017-04-15T03:50:29.775Z,45.73
2017-04-15T03:51:29.071Z,44.70
2017-04-15T03:52:29.056Z,44.38
2017-04-15T03:53:28.323Z,46.23
2017-04-15T03:54:27.644Z,46.23
2017-04-15T03:55:26.889Z,46.70
2017-04-15T03:56:26.157Z,45.48
2017-04-15T03:57:25.473Z,44.30
2017-04-15T03:58:24.744Z,46.20
2017-04-15T03:59:24.007Z,43.95
2017-04-15T04:00:24.075Z,45.65
2017-04-15T04:01:23.693Z,46.27
2017-04-15T04:02:22.978Z,42.05
2017-04-15T04:03:22.312Z,43.65
2017-04-15T04:04:21.808Z,43.03
2017-04-15T04:05:21.097Z,46.93
2017-04-15T04:06:20.433Z,43.57
2017-04-15T04:07:19.750Z,42.17
2017-04-15T04:08:19.807Z,41.87
2017-04-15T04:09:19.112Z,44.57
2017-04-15T04:10:18.413Z,46.42
2017-04-15T04:11:17.678Z,44.32
2017-04-15T04:12:17.011Z,46.08
2017-04-15T04:13:16.302Z,43.38
2017-04-15T04:14:15.587Z,44.43
2017-04-15T04:15:14.864Z,42.43
2017-04-15T04:16:14.139Z,45.22
2017-04-15T04:17:13.445Z,43.93
2017-04-15T04:18:12.717Z,45.43
2017-04-15T04:19:11.984Z,43.77
2017-04-15T04:20:11.262Z,42.90
2017-04-15T04:21:10.553Z,43.53
2017-04-15T04:22:09.847Z,46.25
2017-04-15T04:23:09.105Z,43.25
2017-04-15T04:24:08.444Z,41.95
2017-04-15T04:25:07.723Z,43.18
2017-04-15T04:26:07.005Z,42.83
2017-04-15T04:27:06.289Z,41.83
2017-04-15T04:28:05.541Z,40.60
2017-04-15T04:29:04.821Z,44.15
2017-04-15T04:30:04.102Z,42.82
2017-04-15T04:31:03.410Z,42.18
2017-04-15T04:32:02.738Z,45.60
2017-04-15T04:33:02.003Z,42.68
2017-04-15T04:34:01.279Z,43.18
2017-04-15T04:35:00.622Z,42.32
2017-04-15T04:35:59.951Z,42.58
2017-04-15T04:36:59.282Z,47.82
2017-04-15T04:37:58.541Z,45.97
2017-04-15T04:38:57.827Z,45.68
2017-04-15T04:39:57.112Z,43.95
2017-04-15T04:40:56.415Z,46.02
2017-04-15T04:41:55.708Z,43.35
2017-04-15T04:42:55.022Z,43.35
2017-04-15T04:43:55.125Z,45.67
2017-04-15T04:44:54.399Z,44.58
2017-04-15T04:45:53.649Z,42.17
2017-04-15T04:46:52.948Z,43.88
2017-04-15T04:47:52.259Z,44.78
2017-04-15T04:48:51.806Z,41.82
2017-04-15T04:49:51.119Z,44.22
2017-04-15T04:50:50.471Z,43.58
2017-04-15T04:51:49.762Z,43.38
2017-04-15T04:52:49.099Z,46.90
2017-04-15T04:53:48.367Z,47.12
2017-04-15T04:54:47.625Z,45.70
2017-04-15T04:55:46.872Z,42.10
2017-04-15T04:56:46.203Z,43.48
2017-04-15T04:57:45.493Z,45.53
2017-04-15T04:58:44.835Z,42.58
2017-04-15T04:59:44.130Z,43.75
2017-04-15T05:00:43.548Z,44.85
2017-04-15T05:01:42.857Z,43.85
2017-04-15T05:02:42.172Z,45.77
2017-04-15T05:03:41.490Z,42.23
2017-04-15T05:04:40.758Z,44.52
2017-04-15T05:05:40.037Z,43.17
2017-04-15T05:06:39.319Z,44.85
2017-04-15T05:07:38.617Z,42.88
2017-04-15T05:08:37.875Z,43.50
2017-04-15T05:09:37.164Z,43.68
2017-04-15T05:10:37.141Z,42.78
2017-04-15T05:11:36.503Z,44.93
2017-04-15T05:12:35.834Z,45.45
2017-04-15T05:13:35.115Z,44.87
2017-04-15T05:14:34.408Z,45.82
2017-04-15T05:15:33.694Z,46.47
2017-04-15T05:16:32.978Z,43.77
2017-04-15T05:17:32.942Z,43.20
2017-04-15T05:18:32.219Z,43.62
2017-04-15T05:19:31.889Z,44.40
2017-04-15T05:20:31.161Z,44.67
2017-04-15T05:21:30.417Z,46.48
2017-04-15T05:22:29.670Z,43.98
2017-04-15T05:23:28.975Z,45.38
2017-04-15T05:24:28.276Z,44.25
2017-04-15T05:25:27.564Z,44.70
2017-04-15T05:26:26.914Z,45.55
2017-04-15T05:27:26.243Z,43.82
2017-04-15T05:28:25.552Z,46.48
2017-04-15T05:29:24.890Z,46.85
2017-04-15T05:30:24.179Z,42.98
2017-04-15T05:31:23.504Z,44.87
2017-04-15T05:32:22.859Z,44.32
2017-04-15T05:33:22.148Z,47.18
2017-04-15T05:34:21.414Z,46.92
2017-04-15T05:35:20.750Z,45.43
2017-04-15T05:36:20.795Z,47.90
2017-04-15T05:37:20.100Z,47.08
2017-04-15T05:38:19.421Z,45.30
2017-04-15T05:39:18.742Z,44.98
2017-04-15T05:40:18.079Z,43.68
2017-04-15T05:41:17.392Z,44.27
2017-04-15T05:42:16.697Z,44.78
2017-04-15T05:43:16.724Z,44.93
2017-04-15T05:44:16.066Z,40.78
2017-04-15T05:45:15.380Z,46.68
2017-04-15T05:46:15.041Z,46.67
2017-04-15T05:47:14.629Z,44.63
2017-04-15T05:48:14.383Z,46.83
2017-04-15T05:49:14.441Z,47.85
2017-04-15T05:50:13.772Z,45.75
2017-04-15T05:51:13.029Z,47.33
2017-04-15T05:52:12.317Z,47.18
2017-04-15T05:53:11.604Z,46.28
2017-04-15T05:54:10.889Z,48.72
2017-04-15T05:55:10.151Z,46.47
2017-04-15T05:56:09.416Z,46.93
2017-04-15T05:57:09.423Z,43.22
2017-04-15T05:58:09.793Z,46.67
2017-04-15T05:59:09.066Z,47.85
2017-04-15T06:00:08.355Z,43.17
2017-04-15T06:01:07.621Z,45.42
2017-04-15T06:02:06.926Z,46.07
2017-04-15T06:03:06.424Z,45.13
2017-04-15T06:04:05.740Z,46.23
2017-04-15T06:05:05.009Z,44.55
2017-04-15T06:06:04.291Z,43.10
2017-04-15T06:07:03.567Z,45.10
2017-04-15T06:08:02.886Z,45.38
2017-04-15T06:09:02.218Z,46.03
2017-04-15T06:10:01.589Z,43.13
2017-04-15T06:11:00.847Z,45.75
2017-04-15T06:12:00.159Z,47.67
2017-04-15T06:12:59.402Z,44.18
2017-04-15T06:13:59.476Z,43.53
2017-04-15T06:14:58.777Z,45.23
2017-04-15T06:15:58.043Z,44.15
2017-04-15T06:16:57.288Z,44.37
2017-04-15T06:17:56.607Z,44.77
2017-04-15T06:18:55.943Z,42.03
2017-04-15T06:19:55.432Z,42.62
2017-04-15T06:20:54.753Z,43.83
2017-04-15T06:21:54.046Z,44.02
2017-04-15T06:22:53.316Z,47.30
2017-04-15T06:23:52.870Z,42.08
2017-04-15T06:24:52.222Z,43.32
2017-04-15T06:25:51.539Z,45.27
2017-04-15T06:26:50.803Z,41.10
2017-04-15T06:27:50.092Z,41.80
2017-04-15T06:28:49.436Z,38.32
2017-04-15T06:29:48.731Z,39.23
2017-04-15T06:30:48.135Z,41.85
2017-04-15T06:31:47.407Z,39.45
2017-04-15T06:32:46.750Z,38.58
2017-04-15T06:33:46.085Z,40.45
2017-04-15T06:34:45.390Z,37.65
2017-04-15T06:35:44.738Z,40.70
2017-04-15T06:36:44.049Z,38.93
2017-04-15T06:37:43.363Z,39.43
2017-04-15T06:38:42.631Z,40.15
2017-04-15T06:39:41.993Z,37.20
2017-04-15T06:40:41.224Z,40.23
2017-04-15T06:41:40.516Z,37.88
2017-04-15T06:42:39.800Z,34.18
2017-04-15T06:43:39.098Z,35.88
2017-04-15T06:44:38.407Z,36.67
2017-04-15T06:45:38.444Z,36.93
2017-04-15T06:46:37.738Z,35.78
2017-04-15T06:47:37.125Z,33.55
2017-04-15T06:48:36.457Z,34.95
2017-04-15T06:49:35.864Z,33.90
2017-04-15T06:50:35.195Z,34.62
2017-04-15T06:51:34.457Z,32.53
2017-04-15T06:52:33.812Z,32.37
2017-04-15T06:53:33.176Z,32.33
2017-04-15T06:54:32.802Z,32.37
2017-04-15T06:55:32.119Z,30.77
2017-04-15T06:56:31.387Z,32.77
2017-04-15T06:57:31.422Z,27.95
2017-04-15T06:58:30.996Z,26.42
2017-04-15T06:59:30.260Z,27.80
2017-04-15T07:00:29.565Z,27.15
2017-04-15T07:01:29.581Z,27.30
2017-04-15T07:02:28.943Z,26.07
2017-04-15T07:03:28.636Z,26.35
2017-04-15T07:04:27.972Z,26.43
2017-04-15T07:05:27.401Z,22.78
2017-04-15T07:06:26.753Z,24.47
2017-04-15T07:07:27.546Z,26.43
2017-04-15T07:08:27.356Z,24.27
2017-04-15T07:09:27.101Z,25.03
2017-04-15T07:10:26.374Z,24.73
2017-04-15T07:11:26.109Z,22.78
2017-04-15T07:12:25.538Z,24.05
2017-04-15T07:13:24.915Z,21.50
2017-04-15T07:14:24.186Z,22.28
2017-04-15T07:15:23.533Z,22.65
2017-04-15T07:16:22.812Z,21.00
2017-04-15T07:17:22.184Z,21.67
2017-04-15T07:18:21.550Z,21.32
2017-04-15T07:19:20.845Z,21.55
2017-04-15T07:20:20.361Z,19.55
2017-04-15T07:21:19.748Z,19.47
2017-04-15T07:22:19.220Z,18.82
2017-04-15T07:23:18.620Z,18.42
2017-04-15T07:24:18.025Z,18.97
2017-04-15T07:25:17.369Z,18.23
2017-04-15T07:26:16.729Z,18.20
2017-04-15T07:27:16.063Z,18.57
2017-04-15T07:28:15.339Z,18.10
2017-04-15T07:29:14.918Z,18.15
2017-04-15T07:30:14.150Z,16.67
2017-04-15T07:31:13.521Z,16.48
2017-04-15T07:32:12.860Z,15.55
2017-04-15T07:33:12.126Z,15.02
2017-04-15T07:34:11.434Z,15.97
2017-04-15T07:35:10.780Z,14.97
2017-04-15T07:36:10.100Z,15.57
2017-04-15T07:37:09.650Z,14.95
2017-04-15T07:38:08.929Z,14.02
2017-04-15T07:39:08.266Z,15.63
2017-04-15T07:40:08.187Z,14.42
2017-04-15T07:41:09.308Z,15.23
2017-04-15T07:42:08.571Z,16.05
2017-04-15T07:43:07.975Z,16.15
2017-04-15T07:44:07.903Z,14.67
2017-04-15T07:45:07.322Z,14.32
2017-04-15T07:46:07.467Z,14.62
2017-04-15T07:47:06.884Z,14.95
2017-04-15T07:48:06.248Z,14.45
2017-04-15T07:49:06.281Z,15.68
2017-04-15T07:50:05.572Z,15.18
2017-04-15T07:51:05.585Z,16.23
2017-04-15T07:52:04.961Z,15.78
2017-04-15T07:53:04.259Z,14.88
2017-04-15T07:54:03.585Z,16.45
2017-04-15T07:55:02.849Z,16.80
2017-04-15T07:56:02.208Z,17.77
2017-04-15T07:57:01.452Z,15.53
2017-04-15T07:58:00.720Z,16.00
2017-04-15T07:58:59.983Z,17.28
2017-04-15T07:59:59.228Z,16.50
2017-04-15T08:00:58.551Z,16.08
2017-04-15T08:01:57.838Z,16.17
2017-04-15T08:02:57.089Z,16.95
2017-04-15T08:03:56.359Z,16.70
2017-04-15T08:04:55.620Z,17.50
2017-04-15T08:05:55.179Z,18.13
2017-04-15T08:06:54.491Z,16.22
2017-04-15T08:07:53.732Z,17.87
2017-04-15T08:08:53.023Z,16.28
2017-04-15T08:09:52.330Z,16.75
2017-04-15T08:10:51.610Z,17.20
2017-04-15T08:11:50.935Z,17.45
2017-04-15T08:12:50.236Z,16.93
2017-04-15T08:13:49.505Z,15.78
2017-04-15T08:14:49.536Z,16.43
2017-04-15T08:15:48.829Z,17.80
2017-04-15T08:16:48.146Z,15.52
2017-04-15T08:17:47.434Z,15.55
2017-04-15T08:18:46.690Z,17.28
2017-04-15T08:19:45.976Z,16.40
2017-04-15T08:20:45.287Z,15.28
2017-04-15T08:21:44.599Z,16.42
2017-04-15T08:22:43.846Z,14.93
2017-04-15T08:23:43.121Z,16.65
2017-04-15T08:24:43.226Z,14.62
2017-04-15T08:25:42.491Z,15.50
2017-04-15T08:26:41.786Z,17.43
2017-04-15T08:27:41.084Z,16.25
2017-04-15T08:28:40.355Z,14.80
2017-04-15T08:29:39.599Z,12.78
2017-04-15T08:30:38.868Z,12.02
2017-04-15T08:31:38.170Z,12.92
2017-04-15T08:32:37.446Z,12.47
2017-04-15T08:33:36.713Z,12.27
2017-04-15T08:34:35.987Z,11.07
2017-04-15T08:35:35.315Z,11.42
2017-04-15T08:36:34.708Z,10.92
2017-04-15T08:37:34.025Z,11.35
2017-04-15T08:38:33.286Z,12.05
2017-04-15T08:39:33.696Z,12.12
2017-04-15T08:40:32.969Z,11.83
2017-04-15T08:41:32.284Z,11.07
2017-04-15T08:42:31.620Z,11.43
2017-04-15T08:43:30.911Z,11.75
2017-04-15T08:44:30.998Z,10.20
2017-04-15T08:45:30.284Z,10.38
2017-04-15T08:46:29.951Z,10.02
2017-04-15T08:47:29.305Z,10.52
2017-04-15T08:48:29.357Z,10.37
2017-04-15T08:49:28.706Z,9.88
2017-04-15T08:50:28.024Z,10.72
2017-04-15T08:51:27.485Z,9.88
2017-04-15T08:52:26.837Z,10.90
2017-04-15T08:53:26.194Z,10.95
2017-04-15T08:54:25.520Z,9.57
2017-04-15T08:55:24.856Z,10.48
2017-04-15T08:56:24.145Z,10.32
2017-04-15T08:57:24.084Z,10.00
2017-04-15T08:58:23.409Z,11.42
2017-04-15T08:59:22.713Z,10.73
2017-04-15T09:00:22.809Z,11.37
2017-04-15T09:01:22.121Z,10.22
2017-04-15T09:02:21.528Z,10.95
2017-04-15T09:03:20.820Z,8.73
2017-04-15T09:04:20.252Z,5.77
2017-04-15T09:05:19.548Z,6.37
2017-04-15T09:06:18.805Z,5.82
2017-04-15T09:07:18.123Z,5.80
2017-04-15T09:08:17.439Z,6.55
2017-04-15T09:09:16.739Z,6.15
2017-04-15T09:10:16.027Z,6.15
2017-04-15T09:11:15.366Z,5.98
2017-04-15T09:12:21.341Z,7.48
2017-04-15T09:13:20.860Z,6.73
2017-04-15T09:14:20.179Z,6.12
2017-04-15T09:15:19.465Z,6.37
2017-04-15T09:16:18.789Z,5.82
2017-04-15T09:17:18.126Z,6.85
2017-04-15T09:18:18.150Z,6.10
2017-04-15T09:19:17.522Z,6.12
2017-04-15T09:20:17.632Z,6.25
2017-04-15T09:21:17.627Z,6.50
2017-04-15T09:22:16.993Z,5.03
2017-04-15T09:23:16.349Z,6.65
2017-04-15T09:24:15.730Z,5.50
2017-04-15T09:25:15.058Z,5.77
2017-04-15T09:26:14.408Z,5.00
2017-04-15T09:27:13.751Z,6.05
2017-04-15T09:28:13.082Z,4.90
2017-04-15T09:29:12.318Z,6.02
2017-04-15T09:30:11.617Z,4.17
2017-04-15T09:31:10.998Z,3.32
2017-04-15T09:32:10.320Z,3.98
2017-04-15T09:33:09.651Z,3.57
2017-04-15T09:34:09.036Z,4.23
2017-04-15T09:35:08.389Z,3.25
2017-04-15T09:36:07.690Z,3.68
2017-04-15T09:37:07.014Z,3.52
2017-04-15T09:38:06.328Z,3.05
2017-04-15T09:39:06.360Z,3.47
2017-04-15T09:40:05.666Z,3.68
2017-04-15T09:41:05.151Z,3.38
2017-04-15T09:42:04.641Z,2.50
2017-04-15T09:43:04.155Z,2.85
2017-04-15T09:44:03.452Z,2.00
2017-04-15T09:45:02.829Z,2.97
2017-04-15T09:46:02.153Z,2.37
2017-04-15T09:47:01.510Z,2.75
2017-04-15T09:48:00.937Z,2.52
2017-04-15T09:49:00.422Z,2.42
2017-04-15T09:49:59.782Z,2.75
2017-04-15T09:51:23.194Z,2.42
2017-04-15T09:52:22.952Z,1.77
2017-04-15T09:53:22.269Z,2.28
2017-04-15T09:54:21.556Z,2.08
2017-04-15T09:55:20.859Z,1.85
2017-04-15T09:56:20.149Z,1.67
2017-04-15T09:57:19.497Z,1.98
2017-04-15T09:58:18.973Z,1.90
2017-04-15T09:59:18.353Z,2.50
2017-04-15T10:00:17.722Z,2.10
2017-04-15T10:01:17.047Z,2.15
2017-04-15T10:02:16.355Z,2.65
2017-04-15T10:03:15.739Z,2.65
2017-04-15T10:04:15.049Z,2.82
2017-04-15T10:05:14.443Z,2.20
2017-04-15T10:06:13.791Z,2.78
2017-04-15T10:07:13.107Z,2.63
2017-04-15T10:08:12.436Z,3.30
2017-04-15T10:09:12.510Z,2.32
2017-04-15T10:10:11.861Z,3.18
2017-04-15T10:11:11.399Z,3.43
2017-04-15T10:12:10.729Z,3.10
2017-04-15T10:13:10.143Z,2.43
2017-04-15T10:14:10.184Z,2.45
2017-04-15T10:15:09.497Z,3.02
2017-04-15T10:16:08.857Z,2.20
2017-04-15T10:17:08.181Z,2.62
2017-04-15T10:18:08.725Z,2.42
2017-04-15T10:19:08.218Z,2.57
2017-04-15T10:20:07.505Z,3.33
2017-04-15T10:21:06.872Z,2.80
2017-04-15T10:22:06.170Z,2.53
2017-04-15T10:23:05.566Z,2.67
2017-04-15T10:24:04.894Z,3.33
2017-04-15T10:25:04.298Z,3.57
2017-04-15T10:26:04.121Z,3.65
2017-04-15T10:27:03.466Z,3.68
2017-04-15T10:28:02.796Z,2.92
2017-04-15T10:29:02.135Z,3.32
2017-04-15T10:30:01.502Z,2.30
2017-04-15T10:31:02.807Z,2.83
2017-04-15T10:32:03.226Z,3.00
2017-04-15T10:33:02.826Z,1.83
2017-04-15T10:34:02.296Z,1.68
2017-04-15T10:35:02.018Z,2.72
2017-04-15T10:36:01.430Z,2.78
2017-04-15T10:37:00.813Z,2.00
2017-04-15T10:38:00.131Z,1.75
2017-04-15T10:39:00.251Z,2.32
2017-04-15T10:39:59.597Z,2.30
2017-04-15T10:40:58.924Z,1.52
2017-04-15T10:41:59.035Z,1.82
2017-04-15T10:42:58.383Z,1.80
2017-04-15T10:43:57.779Z,1.75
2017-04-15T10:44:57.122Z,1.75
2017-04-15T10:45:56.465Z,1.88
2017-04-15T10:46:55.858Z,1.93
2017-04-15T10:47:55.286Z,2.08
2017-04-15T10:48:55.028Z,1.88
2017-04-15T10:49:54.546Z,2.12
2017-04-15T10:50:53.968Z,2.83
2017-04-15T10:51:53.283Z,2.62
2017-04-15T10:52:53.619Z,2.78
2017-04-15T10:53:52.963Z,3.50
2017-04-15T10:54:52.385Z,2.13
2017-04-15T10:55:52.637Z,2.60
2017-04-15T10:56:52.575Z,2.93
2017-04-15T10:57:51.903Z,2.65
2017-04-15T10:58:51.258Z,3.57
2017-04-15T10:59:50.827Z,2.95
2017-04-15T11:00:50.422Z,3.85
2017-04-15T11:01:49.833Z,2.92
2017-04-15T11:02:49.443Z,3.28
2017-04-15T11:03:50.301Z,3.65
2017-04-15T11:04:49.663Z,2.28
2017-04-15T11:05:49.046Z,2.90
2017-04-15T11:06:48.392Z,2.37
2017-04-15T11:07:47.708Z,2.53
2017-04-15T11:08:47.073Z,3.00
2017-04-15T11:09:46.914Z,2.03
2017-04-15T11:10:46.292Z,1.50
2017-04-15T11:11:45.732Z,2.03
2017-04-15T11:12:45.243Z,1.67
2017-04-15T11:13:44.772Z,2.03
2017-04-15T11:14:44.162Z,2.38
2017-04-15T11:15:43.589Z,2.03
2017-04-15T11:16:42.914Z,1.75
2017-04-15T11:17:43.224Z,2.57
2017-04-15T11:18:42.752Z,1.77
2017-04-15T11:19:42.174Z,1.78
2017-04-15T11:20:41.657Z,1.77
2017-04-15T11:21:41.118Z,1.30
2017-04-15T11:22:40.406Z,1.98
2017-04-15T11:23:39.786Z,1.92
2017-04-15T11:24:39.106Z,1.53
2017-04-15T11:25:38.468Z,1.80
2017-04-15T11:26:38.576Z,1.77
2017-04-15T11:27:37.877Z,1.85
2017-04-15T11:28:37.153Z,2.20
2017-04-15T11:29:36.493Z,1.78
2017-04-15T11:30:35.802Z,2.15
2017-04-15T11:31:35.144Z,2.17
2017-04-15T11:32:34.478Z,1.73
2017-04-15T11:33:33.834Z,1.62
2017-04-15T11:34:33.273Z,1.80
2017-04-15T11:35:32.767Z,1.92
2017-04-15T11:36:34.170Z,1.53
2017-04-15T11:37:33.518Z,1.90
2017-04-15T11:38:33.070Z,1.68
2017-04-15T11:39:32.537Z,1.67
2017-04-15T11:40:31.826Z,1.83
2017-04-15T11:41:36.895Z,2.35
2017-04-15T11:42:36.348Z,2.73
2017-04-15T11:43:35.739Z,1.63
2017-04-15T11:44:35.191Z,2.10
2017-04-15T11:45:34.674Z,1.25
2017-04-15T11:46:34.010Z,2.03
2017-04-15T11:47:33.359Z,2.40
2017-04-15T11:48:33.408Z,1.93
2017-04-15T11:49:32.755Z,1.62
2017-04-15T11:50:33.916Z,1.58
2017-04-15T11:51:33.168Z,2.17
2017-04-15T11:52:33.212Z,2.25
2017-04-15T11:53:32.539Z,2.28
2017-04-15T11:54:31.807Z,1.47
2017-04-15T11:55:31.118Z,2.55
2017-04-15T11:56:30.403Z,2.22
2017-04-15T11:57:29.794Z,2.93
2017-04-15T11:58:29.032Z,1.93
2017-04-15T11:59:28.313Z,1.97
2017-04-15T12:00:27.599Z,1.95
2017-04-15T12:01:26.946Z,1.83
2017-04-15T12:02:26.243Z,1.33
2017-04-15T12:03:25.514Z,2.15
2017-04-15T12:04:24.809Z,1.97
2017-04-15T12:05:24.218Z,2.15
2017-04-15T12:06:23.925Z,2.60
2017-04-15T12:07:24.039Z,3.05
2017-04-15T12:08:23.320Z,2.35
2017-04-15T12:09:22.578Z,2.62
2017-04-15T12:10:21.878Z,2.53
2017-04-15T12:11:21.154Z,2.65
2017-04-15T12:12:20.624Z,1.92
2017-04-15T12:13:19.958Z,2.63
2017-04-15T12:14:19.241Z,2.80
2017-04-15T12:15:18.552Z,1.70
2017-04-15T12:16:17.804Z,2.47
2017-04-15T12:17:17.127Z,1.77
2017-04-15T12:18:16.390Z,2.05
2017-04-15T12:19:15.718Z,1.53
2017-04-15T12:20:15.066Z,2.03
2017-04-15T12:21:14.366Z,2.18
2017-04-15T12:22:13.721Z,2.00
2017-04-15T12:23:13.224Z,1.55
2017-04-15T12:24:12.996Z,2.13
2017-04-15T12:25:12.379Z,2.07
2017-04-15T12:26:11.705Z,1.48
2017-04-15T12:27:11.734Z,2.02
2017-04-15T12:28:10.996Z,1.55
2017-04-15T12:29:10.386Z,1.50
2017-04-15T12:30:10.600Z,1.88
2017-04-15T12:31:09.921Z,2.50
2017-04-15T12:32:09.222Z,1.48
2017-04-15T12:33:08.592Z,2.20
2017-04-15T12:34:07.878Z,2.27
2017-04-15T12:35:07.930Z,1.83
2017-04-15T12:36:07.274Z,2.25
2017-04-15T12:37:06.600Z,1.67
2017-04-15T12:38:05.892Z,1.63
2017-04-15T12:39:05.518Z,2.05
2017-04-15T12:40:04.837Z,1.68
2017-04-15T12:41:04.233Z,1.58
2017-04-15T12:42:03.459Z,1.85
2017-04-15T12:43:02.769Z,2.88
2017-04-15T12:44:02.059Z,2.73
2017-04-15T12:45:01.331Z,2.88
2017-04-15T12:46:02.750Z,2.55
2017-04-15T12:47:02.001Z,2.25
2017-04-15T12:48:01.377Z,2.32
2017-04-15T12:49:01.418Z,2.38
2017-04-15T12:50:00.683Z,2.55
2017-04-15T12:50:59.988Z,2.52
2017-04-15T12:51:59.268Z,3.30
2017-04-15T12:52:58.527Z,2.85
2017-04-15T12:53:57.767Z,2.68
2017-04-15T12:54:59.288Z,3.23
2017-04-15T12:55:59.677Z,3.17
2017-04-15T12:56:58.991Z,2.73
2017-04-15T12:57:58.258Z,2.65
2017-04-15T12:58:57.540Z,3.02
2017-04-15T12:59:56.845Z,3.17
2017-04-15T13:00:56.116Z,2.72